Time;durP1;ratioP1;P1;durP2;ratioP2;P2;SDS_P1;SDS_P2;PMS_P1;PMS_P2;Temp;Humidity;BMP_temperature;BMP_pressure;BME280_temperature;BME280_humidity;BME280_pressure;Samples;Min_cycle;Max_cycle;Signal;HPM_P1;HPM_P2
2022/08/31 00:04:29;;;;;;;2.75;1.50;;;;;;;;;;5089639;28;20051;-74
2022/08/31 00:06:57;;;;;;;4.07;1.65;;;;;;;;;;5087760;28;20136;-72
2022/08/31 00:09:24;;;;;;;2.92;1.80;;;;;;;;;;5087649;28;20040;-74
2022/08/31 00:11:51;;;;;;;1.77;1.30;;;;;;;;;;5090262;28;20049;-74
2022/08/31 00:14:19;;;;;;;3.72;1.67;;;;;;;;;;5096619;28;20095;-73
2022/08/31 00:16:47;;;;;;;1.95;1.42;;;;;;;;;;5089362;28;20045;-73
2022/08/31 00:19:15;;;;;;;3.80;1.83;;;;;;;;;;5091966;28;20050;-73
2022/08/31 00:21:42;;;;;;;3.90;1.60;;;;;;;;;;5086521;28;20033;-74
2022/08/31 00:24:13;;;;;;;4.15;1.70;;;;;;;;;;5092415;28;20056;-74
2022/08/31 00:26:41;;;;;;;3.58;1.60;;;;;;;;;;5091323;28;20057;-72
2022/08/31 00:29:08;;;;;;;3.75;1.45;;;;;;;;;;5078955;28;20053;-73
2022/08/31 00:31:35;;;;;;;2.88;1.60;;;;;;;;;;5091506;28;20908;-74
2022/08/31 00:34:03;;;;;;;3.53;1.60;;;;;;;;;;5091557;28;20534;-75
2022/08/31 00:36:30;;;;;;;2.80;1.42;;;;;;;;;;5093097;28;20636;-74
2022/08/31 00:38:57;;;;;;;3.30;1.52;;;;;;;;;;5089811;28;20049;-73
2022/08/31 00:41:26;;;;;;;3.38;1.58;;;;;;;;;;5089251;28;20045;-73
2022/08/31 00:43:54;;;;;;;4.20;1.55;;;;;;;;;;5089347;28;20108;-73
2022/08/31 00:46:23;;;;;;;3.58;1.73;;;;;;;;;;5083062;28;20055;-74
2022/08/31 00:49:05;;;;;;;5.32;1.73;;;;;;;;;;5074412;28;20059;-73
2022/08/31 00:51:37;;;;;;;2.83;1.67;;;;;;;;;;5085573;28;20082;-75
2022/08/31 00:54:08;;;;;;;4.82;1.73;;;;;;;;;;5088367;28;20053;-74
2022/08/31 00:56:36;;;;;;;3.33;1.58;;;;;;;;;;5086449;28;20060;-73
2022/08/31 00:59:03;;;;;;;2.47;1.50;;;;;;;;;;5084586;28;20076;-74
2022/08/31 01:01:30;;;;;;;3.28;1.63;;;;;;;;;;5081042;28;20047;-73
2022/08/31 01:03:58;;;;;;;2.03;1.50;;;;;;;;;;5092548;28;22316;-73
2022/08/31 01:06:26;;;;;;;4.45;1.80;;;;;;;;;;5093394;28;20044;-73
2022/08/31 01:08:54;;;;;;;6.22;1.60;;;;;;;;;;5089987;28;20048;-73
2022/08/31 01:11:23;;;;;;;2.75;1.40;;;;;;;;;;5094156;28;20037;-73
2022/08/31 01:13:54;;;;;;;28.58;5.35;;;;;;;;;;5094223;28;20056;-74
2022/08/31 01:16:32;;;;;;;6.75;1.83;;;;;;;;;;5094371;28;20137;-74
2022/08/31 01:19:02;;;;;;;3.28;1.60;;;;;;;;;;5087749;28;20179;-73
2022/08/31 01:21:43;;;;;;;5.78;3.35;;;;;;;;;;5083089;28;20040;-73
2022/08/31 01:24:11;;;;;;;2.95;1.50;;;;;;;;;;5089937;28;20052;-73
2022/08/31 01:26:39;;;;;;;4.97;1.80;;;;;;;;;;5089140;28;20052;-74
2022/08/31 01:29:06;;;;;;;3.20;1.70;;;;;;;;;;5092890;28;20041;-74
2022/08/31 01:31:36;;;;;;;52.42;47.95;;;;;;;;;;5089112;28;20132;-73
2022/08/31 01:34:03;;;;;;;5.72;1.48;;;;;;;;;;5087257;28;20059;-72
2022/08/31 01:36:31;;;;;;;3.58;1.83;;;;;;;;;;5086845;28;20045;-73
2022/08/31 01:38:58;;;;;;;5.72;1.77;;;;;;;;;;5091147;28;20052;-73
2022/08/31 01:41:26;;;;;;;3.65;1.83;;;;;;;;;;5092601;28;20043;-72
2022/08/31 01:43:53;;;;;;;3.30;1.70;;;;;;;;;;5088415;28;20095;-73
2022/08/31 01:46:21;;;;;;;4.07;1.65;;;;;;;;;;5094427;28;20098;-73
2022/08/31 01:48:49;;;;;;;2.00;1.50;;;;;;;;;;5080436;28;20053;-74
2022/08/31 01:51:17;;;;;;;3.22;1.40;;;;;;;;;;5089815;28;20049;-73
2022/08/31 01:53:46;;;;;;;3.42;1.60;;;;;;;;;;5078097;28;20139;-75
2022/08/31 01:56:16;;;;;;;3.88;1.75;;;;;;;;;;5096091;28;20049;-72
2022/08/31 01:58:43;;;;;;;2.40;1.70;;;;;;;;;;5097490;28;20052;-74
2022/08/31 02:01:11;;;;;;;3.45;1.95;;;;;;;;;;5086622;28;20052;-73
2022/08/31 02:03:58;;;;;;;6.65;1.60;;;;;;;;;;5084317;28;20735;-72
2022/08/31 02:06:26;;;;;;;3.67;1.60;;;;;;;;;;5085402;28;20048;-73
2022/08/31 02:08:54;;;;;;;4.97;1.60;;;;;;;;;;5084924;28;20040;-73
2022/08/31 02:11:21;;;;;;;4.88;1.50;;;;;;;;;;5086465;28;20976;-73
2022/08/31 02:13:48;;;;;;;4.15;1.45;;;;;;;;;;5086106;28;20052;-74
2022/08/31 02:16:15;;;;;;;3.42;1.48;;;;;;;;;;5087403;28;20056;-73
2022/08/31 02:18:42;;;;;;;3.33;1.40;;;;;;;;;;5081832;28;20051;-73
2022/08/31 02:21:11;;;;;;;4.70;1.70;;;;;;;;;;5088665;28;20048;-74
2022/08/31 02:23:39;;;;;;;4.60;1.48;;;;;;;;;;5089794;28;20143;-74
2022/08/31 02:26:06;;;;;;;7.18;1.50;;;;;;;;;;5087660;28;20131;-73
2022/08/31 02:28:33;;;;;;;1.95;1.40;;;;;;;;;;5078366;28;20045;-73
2022/08/31 02:31:00;;;;;;;4.97;1.50;;;;;;;;;;5086182;28;20053;-74
2022/08/31 02:33:28;;;;;;;3.67;1.60;;;;;;;;;;5082365;28;20052;-73
2022/08/31 02:35:57;;;;;;;5.68;1.50;;;;;;;;;;5086214;28;20114;-75
2022/08/31 02:38:26;;;;;;;4.63;1.70;;;;;;;;;;5086988;28;20076;-73
2022/08/31 02:40:53;;;;;;;1.58;1.20;;;;;;;;;;5081184;28;20083;-73
2022/08/31 02:43:20;;;;;;;1.95;1.33;;;;;;;;;;5085054;28;20056;-72
2022/08/31 02:45:51;;;;;;;2.65;1.23;;;;;;;;;;5078951;28;20154;-73
2022/08/31 02:48:19;;;;;;;1.90;1.23;;;;;;;;;;5089265;28;20501;-72
2022/08/31 02:50:48;;;;;;;6.00;1.60;;;;;;;;;;5078492;28;20059;-72
2022/08/31 02:53:16;;;;;;;3.75;1.48;;;;;;;;;;5077226;28;20049;-72
2022/08/31 02:55:43;;;;;;;2.45;1.40;;;;;;;;;;5085200;28;20048;-74
2022/08/31 02:58:11;;;;;;;3.88;1.52;;;;;;;;;;5080567;28;20056;-74
2022/08/31 03:00:39;;;;;;;1.88;1.30;;;;;;;;;;5089903;28;20769;-72
2022/08/31 03:03:07;;;;;;;2.47;1.65;;;;;;;;;;5081571;28;20057;-73
2022/08/31 03:05:34;;;;;;;7.72;1.50;;;;;;;;;;5082723;28;20913;-73
2022/08/31 03:08:01;;;;;;;1.88;1.30;;;;;;;;;;5081003;28;20045;-73
2022/08/31 03:10:28;;;;;;;4.05;1.20;;;;;;;;;;5082352;28;20049;-73
2022/08/31 03:12:56;;;;;;;2.40;1.60;;;;;;;;;;5078054;28;20053;-72
2022/08/31 03:15:24;;;;;;;5.13;1.55;;;;;;;;;;5079891;28;20045;-74
2022/08/31 03:17:51;;;;;;;4.47;1.40;;;;;;;;;;5086415;28;20059;-74
2022/08/31 03:20:20;;;;;;;2.08;1.40;;;;;;;;;;5084468;28;20897;-74
2022/08/31 03:22:49;;;;;;;2.70;1.60;;;;;;;;;;5088941;28;20052;-72
2022/08/31 03:25:17;;;;;;;2.67;1.50;;;;;;;;;;5091254;28;20127;-74
2022/08/31 03:27:45;;;;;;;2.05;1.30;;;;;;;;;;5087727;28;20055;-73
2022/08/31 03:30:14;;;;;;;2.42;1.40;;;;;;;;;;5089183;28;20053;-74
2022/08/31 03:32:44;;;;;;;5.90;1.58;;;;;;;;;;5090485;28;20549;-73
2022/08/31 03:35:12;;;;;;;4.43;1.48;;;;;;;;;;5091463;28;20051;-73
2022/08/31 03:37:39;;;;;;;2.90;1.42;;;;;;;;;;5090105;28;20063;-73
2022/08/31 03:40:07;;;;;;;2.58;1.60;;;;;;;;;;5084939;28;20953;-73
2022/08/31 03:42:34;;;;;;;2.63;1.50;;;;;;;;;;5090782;28;20049;-73
2022/08/31 03:45:02;;;;;;;1.98;1.42;;;;;;;;;;5091048;28;20079;-73
2022/08/31 03:47:29;;;;;;;2.83;1.50;;;;;;;;;;5087042;28;20115;-74
2022/08/31 03:49:58;;;;;;;1.80;1.40;;;;;;;;;;5092004;28;20409;-73
2022/08/31 03:52:26;;;;;;;6.05;1.35;;;;;;;;;;5090978;28;20165;-72
2022/08/31 03:54:53;;;;;;;2.83;1.50;;;;;;;;;;5089068;28;20051;-73
2022/08/31 03:57:20;;;;;;;5.47;1.35;;;;;;;;;;5089492;28;20048;-73
2022/08/31 03:59:47;;;;;;;1.20;1.10;;;;;;;;;;5091213;28;20051;-74
2022/08/31 04:02:14;;;;;;;1.65;1.30;;;;;;;;;;5090127;28;20048;-73
2022/08/31 04:04:41;;;;;;;3.03;1.48;;;;;;;;;;5087199;28;20081;-72
2022/08/31 04:07:08;;;;;;;4.32;1.30;;;;;;;;;;5088617;28;20044;-73
2022/08/31 04:09:36;;;;;;;4.47;1.25;;;;;;;;;;5088334;28;20044;-73
2022/08/31 04:12:03;;;;;;;2.15;1.25;;;;;;;;;;5087011;28;20055;-74
2022/08/31 04:14:30;;;;;;;1.67;1.10;;;;;;;;;;5090143;28;20040;-73
2022/08/31 04:16:59;;;;;;;3.28;1.25;;;;;;;;;;5091422;28;20048;-73
2022/08/31 04:19:26;;;;;;;2.25;1.15;;;;;;;;;;5092760;28;20138;-73
2022/08/31 04:21:56;;;;;;;1.60;1.10;;;;;;;;;;5089851;28;20076;-73
2022/08/31 04:24:23;;;;;;;2.25;1.40;;;;;;;;;;5083916;28;20044;-73
2022/08/31 04:26:51;;;;;;;3.78;1.20;;;;;;;;;;5089057;28;20048;-73
2022/08/31 04:29:18;;;;;;;1.45;1.15;;;;;;;;;;5067667;28;20141;-73
2022/08/31 04:31:46;;;;;;;1.58;1.20;;;;;;;;;;5091198;28;20048;-72
2022/08/31 04:34:13;;;;;;;1.63;1.17;;;;;;;;;;5088075;28;20049;-72
2022/08/31 04:36:40;;;;;;;2.00;1.23;;;;;;;;;;5086860;28;20654;-73
2022/08/31 04:39:08;;;;;;;2.25;1.40;;;;;;;;;;5088400;28;20083;-73
2022/08/31 04:41:36;;;;;;;1.42;1.08;;;;;;;;;;5081642;28;20045;-74
2022/08/31 04:44:04;;;;;;;1.17;1.08;;;;;;;;;;5082074;28;20056;-73
2022/08/31 04:46:31;;;;;;;1.80;1.10;;;;;;;;;;5085830;28;20044;-74
2022/08/31 04:48:59;;;;;;;3.58;1.10;;;;;;;;;;5090340;28;20040;-73
2022/08/31 04:51:27;;;;;;;4.95;1.05;;;;;;;;;;5087283;28;20532;-73
2022/08/31 04:53:55;;;;;;;0.98;0.80;;;;;;;;;;5094451;28;20046;-73
2022/08/31 04:56:24;;;;;;;3.55;1.15;;;;;;;;;;5094296;28;22806;-73
2022/08/31 04:58:53;;;;;;;1.20;1.02;;;;;;;;;;5094207;28;20048;-73
2022/08/31 05:01:22;;;;;;;1.67;1.25;;;;;;;;;;5095322;28;20029;-72
2022/08/31 05:03:52;;;;;;;1.45;1.20;;;;;;;;;;5096856;28;20049;-72
2022/08/31 05:06:21;;;;;;;5.75;1.08;;;;;;;;;;5098732;28;20064;-73
2022/08/31 05:08:51;;;;;;;4.30;0.93;;;;;;;;;;5099212;28;20033;-74
2022/08/31 05:11:20;;;;;;;1.80;1.10;;;;;;;;;;5105303;28;20143;-72
2022/08/31 05:13:51;;;;;;;1.85;1.20;;;;;;;;;;5098136;28;20058;-73
2022/08/31 05:16:19;;;;;;;1.73;1.08;;;;;;;;;;5092038;28;20051;-74
2022/08/31 05:18:47;;;;;;;1.65;1.17;;;;;;;;;;5093010;28;20036;-73
2022/08/31 05:21:27;;;;;;;1.27;1.13;;;;;;;;;;5092607;28;20092;-73
2022/08/31 05:24:05;;;;;;;2.95;1.13;;;;;;;;;;5100489;28;20102;-74
2022/08/31 05:26:34;;;;;;;1.30;1.10;;;;;;;;;;5096471;28;20056;-72
2022/08/31 05:29:05;;;;;;;1.92;1.15;;;;;;;;;;5093316;28;20876;-73
2022/08/31 05:31:34;;;;;;;3.03;1.23;;;;;;;;;;5095580;28;20063;-74
2022/08/31 05:34:02;;;;;;;1.58;1.10;;;;;;;;;;5094359;28;20104;-73
2022/08/31 05:36:29;;;;;;;1.25;1.10;;;;;;;;;;5096627;28;20127;-73
2022/08/31 05:38:59;;;;;;;1.27;1.02;;;;;;;;;;5094481;28;20052;-73
2022/08/31 05:41:28;;;;;;;4.57;1.10;;;;;;;;;;5096652;28;20037;-72
2022/08/31 05:43:55;;;;;;;2.88;1.17;;;;;;;;;;5101040;28;20066;-73
2022/08/31 05:46:22;;;;;;;1.67;0.80;;;;;;;;;;5100846;28;20794;-74
2022/08/31 05:48:49;;;;;;;2.45;0.98;;;;;;;;;;5100936;28;20079;-74
2022/08/31 05:51:17;;;;;;;3.42;0.85;;;;;;;;;;5091477;28;20089;-74
2022/08/31 05:53:46;;;;;;;1.77;0.95;;;;;;;;;;5099874;28;20109;-72
2022/08/31 05:56:15;;;;;;;1.50;1.00;;;;;;;;;;5099564;28;20052;-75
2022/08/31 05:58:46;;;;;;;2.58;1.00;;;;;;;;;;5106448;28;20097;-74
2022/08/31 06:01:18;;;;;;;8.27;1.20;;;;;;;;;;5097006;28;20049;-73
2022/08/31 06:03:45;;;;;;;1.35;0.88;;;;;;;;;;5097095;28;20045;-74
2022/08/31 06:06:13;;;;;;;4.50;0.82;;;;;;;;;;5106016;28;20048;-74
2022/08/31 06:08:40;;;;;;;2.85;1.20;;;;;;;;;;5103879;28;20048;-73
2022/08/31 06:11:14;;;;;;;2.17;0.80;;;;;;;;;;5102885;28;20151;-73
2022/08/31 06:13:41;;;;;;;2.50;1.10;;;;;;;;;;5104559;28;20053;-74
2022/08/31 06:16:09;;;;;;;1.55;0.80;;;;;;;;;;5099912;28;20044;-74
2022/08/31 06:18:37;;;;;;;1.08;0.90;;;;;;;;;;5100162;28;20178;-74
2022/08/31 06:21:07;;;;;;;0.98;0.90;;;;;;;;;;5103238;28;20032;-73
2022/08/31 06:23:35;;;;;;;0.90;0.90;;;;;;;;;;5102740;28;20051;-74
2022/08/31 06:26:04;;;;;;;2.28;0.90;;;;;;;;;;5100922;28;20048;-73
2022/08/31 06:28:31;;;;;;;1.63;0.90;;;;;;;;;;5102231;28;20900;-73
2022/08/31 06:31:11;;;;;;;1.92;0.90;;;;;;;;;;5104134;28;20052;-74
2022/08/31 06:33:39;;;;;;;3.50;0.70;;;;;;;;;;5083392;28;20048;-73
2022/08/31 06:36:10;;;;;;;0.98;0.88;;;;;;;;;;5101913;28;20097;-73
2022/08/31 06:38:39;;;;;;;3.80;1.17;;;;;;;;;;5095924;28;20051;-75
2022/08/31 06:41:12;;;;;;;2.83;0.90;;;;;;;;;;5099956;28;20122;-72
2022/08/31 06:43:39;;;;;;;1.45;1.00;;;;;;;;;;5101903;28;20045;-72
2022/08/31 06:46:07;;;;;;;2.45;0.95;;;;;;;;;;5093566;28;20048;-73
2022/08/31 06:48:35;;;;;;;0.98;0.70;;;;;;;;;;5101159;28;21007;-74
2022/08/31 06:51:02;;;;;;;1.00;0.90;;;;;;;;;;5098294;28;20052;-73
2022/08/31 06:53:30;;;;;;;0.70;0.70;;;;;;;;;;5101344;28;21186;-75
2022/08/31 06:55:57;;;;;;;2.58;0.95;;;;;;;;;;5094255;28;20868;-75
2022/08/31 06:58:24;;;;;;;2.15;0.98;;;;;;;;;;5107834;28;20036;-74
2022/08/31 07:00:52;;;;;;;1.42;0.90;;;;;;;;;;5107137;28;20060;-73
2022/08/31 07:03:23;;;;;;;1.75;0.90;;;;;;;;;;5103638;28;20078;-73
2022/08/31 07:05:52;;;;;;;1.65;0.93;;;;;;;;;;5101888;28;20060;-74
2022/08/31 07:08:19;;;;;;;1.55;1.10;;;;;;;;;;5107444;28;20044;-75
2022/08/31 07:10:48;;;;;;;1.20;0.93;;;;;;;;;;5103956;28;20055;-73
2022/08/31 07:13:15;;;;;;;0.90;0.90;;;;;;;;;;5105024;28;20044;-74
2022/08/31 07:15:43;;;;;;;2.63;1.00;;;;;;;;;;5106639;28;20048;-74
2022/08/31 07:18:10;;;;;;;2.08;1.00;;;;;;;;;;5105871;28;20441;-74
2022/08/31 07:20:37;;;;;;;2.60;0.90;;;;;;;;;;5093644;28;20036;-73
2022/08/31 07:23:04;;;;;;;1.45;0.90;;;;;;;;;;5108101;28;20048;-75
2022/08/31 07:25:32;;;;;;;1.35;0.90;;;;;;;;;;5108549;28;20092;-74
2022/08/31 07:28:01;;;;;;;2.17;1.13;;;;;;;;;;5110040;28;20045;-75
2022/08/31 07:30:29;;;;;;;1.23;0.98;;;;;;;;;;5111959;28;20151;-74
2022/08/31 07:33:03;;;;;;;2.28;0.80;;;;;;;;;;5105978;28;20049;-74
2022/08/31 07:35:30;;;;;;;3.92;1.10;;;;;;;;;;5107436;28;20056;-73
2022/08/31 07:43:30;;;;;;;2.80;1.02;;;;;;;;;;5106151;28;20108;-74
2022/08/31 07:45:59;;;;;;;5.35;1.20;;;;;;;;;;5106518;28;20048;-73
2022/08/31 07:48:26;;;;;;;3.20;0.98;;;;;;;;;;5109257;28;20044;-74
2022/08/31 07:50:55;;;;;;;2.72;1.10;;;;;;;;;;5104865;28;20035;-76
2022/08/31 07:53:23;;;;;;;2.17;1.20;;;;;;;;;;5109409;28;21034;-74
2022/08/31 07:55:57;;;;;;;2.38;1.10;;;;;;;;;;5112053;28;20055;-74
2022/08/31 07:58:26;;;;;;;1.10;0.73;;;;;;;;;;5107421;28;20127;-75
2022/08/31 08:00:54;;;;;;;2.40;1.10;;;;;;;;;;5107213;28;20044;-74
2022/08/31 08:03:21;;;;;;;1.58;1.02;;;;;;;;;;5108191;28;20031;-75
2022/08/31 08:05:49;;;;;;;1.15;0.90;;;;;;;;;;5107854;28;20039;-73
2022/08/31 08:08:21;;;;;;;1.50;1.20;;;;;;;;;;5109276;28;20758;-76
2022/08/31 08:10:49;;;;;;;2.45;1.10;;;;;;;;;;5106938;28;20029;-74
2022/08/31 08:13:19;;;;;;;1.67;1.35;;;;;;;;;;5089818;28;20072;-74
2022/08/31 08:15:49;;;;;;;1.63;1.10;;;;;;;;;;5108833;28;20040;-75
2022/08/31 08:18:18;;;;;;;1.70;1.20;;;;;;;;;;5104890;28;20021;-76
2022/08/31 08:20:45;;;;;;;1.75;1.15;;;;;;;;;;5109874;28;20029;-75
2022/08/31 08:23:14;;;;;;;3.05;1.40;;;;;;;;;;5093487;28;20104;-75
2022/08/31 08:25:45;;;;;;;2.08;1.02;;;;;;;;;;5110247;28;20095;-75
2022/08/31 08:28:16;;;;;;;5.18;1.30;;;;;;;;;;5110654;28;20044;-74
2022/08/31 08:31:03;;;;;;;6.55;1.20;;;;;;;;;;5109514;28;20037;-76
2022/08/31 08:33:31;;;;;;;1.45;1.20;;;;;;;;;;5102803;28;20044;-75
2022/08/31 08:36:01;;;;;;;2.67;1.27;;;;;;;;;;5110845;28;20067;-75
2022/08/31 08:38:30;;;;;;;1.77;1.20;;;;;;;;;;5108845;28;20108;-75
2022/08/31 08:40:58;;;;;;;2.42;1.20;;;;;;;;;;5110991;28;20017;-75
2022/08/31 08:43:33;;;;;;;1.20;1.10;;;;;;;;;;5096461;28;20049;-75
2022/08/31 08:46:01;;;;;;;1.55;1.00;;;;;;;;;;5108635;28;20053;-75
2022/08/31 08:48:50;;;;;;;2.50;1.23;;;;;;;;;;5109989;28;20051;-76
2022/08/31 08:51:25;;;;;;;2.60;1.13;;;;;;;;;;5110749;28;20100;-76
2022/08/31 08:53:58;;;;;;;4.25;1.42;;;;;;;;;;5111243;28;20045;-76
2022/08/31 08:56:26;;;;;;;1.25;1.00;;;;;;;;;;5106974;28;20108;-76
2022/08/31 08:59:00;;;;;;;1.85;1.10;;;;;;;;;;5106880;28;20040;-75
2022/08/31 09:01:29;;;;;;;2.20;1.17;;;;;;;;;;5108407;28;20105;-75
2022/08/31 09:04:06;;;;;;;3.47;1.25;;;;;;;;;;5110008;28;20040;-76
2022/08/31 09:06:46;;;;;;;4.20;1.30;;;;;;;;;;5091744;28;20043;-78
2022/08/31 09:09:26;;;;;;;2.53;1.75;;;;;;;;;;5104505;28;20037;-74
2022/08/31 09:12:19;;;;;;;3.53;1.70;;;;;;;;;;5111919;28;20029;-75
2022/08/31 09:14:52;;;;;;;2.72;1.45;;;;;;;;;;5101811;28;20120;-74
2022/08/31 09:17:38;;;;;;;1.27;1.17;;;;;;;;;;5113098;28;20055;-74
2022/08/31 09:20:06;;;;;;;6.05;1.50;;;;;;;;;;5111042;28;20066;-75
2022/08/31 09:22:45;;;;;;;4.03;1.20;;;;;;;;;;5107930;28;20028;-76
2022/08/31 09:25:14;;;;;;;1.60;1.20;;;;;;;;;;5111812;28;20051;-75
2022/08/31 09:27:55;;;;;;;7.32;1.65;;;;;;;;;;5096083;28;20108;-74
2022/08/31 09:30:35;;;;;;;7.05;1.15;;;;;;;;;;5108288;28;20045;-74
2022/08/31 09:33:03;;;;;;;2.22;1.50;;;;;;;;;;5110187;28;20092;-75
2022/08/31 09:35:39;;;;;;;1.55;1.45;;;;;;;;;;5109116;28;20076;-76
2022/08/31 09:38:11;;;;;;;3.53;1.42;;;;;;;;;;5103938;28;20075;-75
2022/08/31 09:40:40;;;;;;;1.80;1.27;;;;;;;;;;5107785;28;20068;-73
2022/08/31 09:43:08;;;;;;;4.28;1.30;;;;;;;;;;5102885;28;20032;-75
2022/08/31 09:45:39;;;;;;;2.63;1.40;;;;;;;;;;5107447;28;20070;-75
2022/08/31 09:48:09;;;;;;;9.77;1.48;;;;;;;;;;5107982;28;20055;-74
2022/08/31 09:50:43;;;;;;;2.13;1.20;;;;;;;;;;5104319;28;20053;-76
2022/08/31 09:56:14;;;;;;;2.08;1.45;;;;;;;;;;5107402;28;20068;-75
2022/08/31 09:58:56;;;;;;;1.55;1.30;;;;;;;;;;5104580;28;20049;-74
2022/08/31 10:01:33;;;;;;;6.47;1.50;;;;;;;;;;5109732;28;20040;-75
2022/08/31 10:04:15;;;;;;;2.00;1.20;;;;;;;;;;5099933;28;20041;-74
2022/08/31 10:06:49;;;;;;;1.58;1.10;;;;;;;;;;5105569;28;20041;-74
2022/08/31 10:09:22;;;;;;;3.40;1.38;;;;;;;;;;5105766;28;20439;-74
2022/08/31 10:11:53;;;;;;;4.38;1.48;;;;;;;;;;5100473;28;20059;-75
2022/08/31 10:14:43;;;;;;;2.25;1.30;;;;;;;;;;5103623;28;20035;-76
2022/08/31 10:17:24;;;;;;;1.58;1.10;;;;;;;;;;5096750;28;20038;-75
2022/08/31 10:20:00;;;;;;;2.70;1.25;;;;;;;;;;5101514;28;20036;-73
2022/08/31 10:22:31;;;;;;;8.43;7.72;;;;;;;;;;5105412;28;20044;-73
2022/08/31 10:25:03;;;;;;;1.55;1.02;;;;;;;;;;5102563;28;20049;-74
2022/08/31 10:27:38;;;;;;;2.78;1.90;;;;;;;;;;5102870;28;20044;-75
2022/08/31 10:30:08;;;;;;;8.30;1.27;;;;;;;;;;5105496;28;20052;-75
2022/08/31 10:32:50;;;;;;;1.38;1.00;;;;;;;;;;5107429;28;20491;-73
2022/08/31 10:35:20;;;;;;;2.05;1.33;;;;;;;;;;5106112;28;20033;-75
2022/08/31 10:37:58;;;;;;;2.80;1.40;;;;;;;;;;5108868;28;20041;-74
2022/08/31 10:40:32;;;;;;;3.45;1.35;;;;;;;;;;5106744;28;20049;-73
2022/08/31 10:43:00;;;;;;;4.57;1.17;;;;;;;;;;5105278;28;20032;-75
2022/08/31 10:45:28;;;;;;;4.13;1.10;;;;;;;;;;5096191;28;20044;-75
2022/08/31 10:47:56;;;;;;;2.05;1.10;;;;;;;;;;5110612;28;22041;-74
2022/08/31 10:50:26;;;;;;;6.15;1.65;;;;;;;;;;5100715;28;20037;-74
2022/08/31 10:53:12;;;;;;;3.10;1.20;;;;;;;;;;5105434;28;20049;-73
2022/08/31 10:55:47;;;;;;;3.03;1.00;;;;;;;;;;5112376;28;20035;-74
2022/08/31 10:58:24;;;;;;;4.60;1.20;;;;;;;;;;5109053;28;20068;-76
2022/08/31 11:01:03;;;;;;;3.55;1.27;;;;;;;;;;5102379;28;20075;-73
2022/08/31 11:03:33;;;;;;;2.40;0.98;;;;;;;;;;5113832;28;20091;-74
2022/08/31 11:06:18;;;;;;;2.88;1.13;;;;;;;;;;5107451;28;20046;-74
2022/08/31 11:09:04;;;;;;;2.25;1.30;;;;;;;;;;5111144;28;20080;-74
2022/08/31 11:11:34;;;;;;;4.38;1.45;;;;;;;;;;5112191;28;20092;-73
2022/08/31 11:14:28;;;;;;;3.92;1.33;;;;;;;;;;5109086;28;20061;-72
2022/08/31 11:17:01;;;;;;;4.18;1.10;;;;;;;;;;5100718;28;20033;-74
2022/08/31 11:19:37;;;;;;;3.53;1.35;;;;;;;;;;5110950;28;20139;-75
2022/08/31 11:22:05;;;;;;;2.92;1.30;;;;;;;;;;5109251;28;20136;-74
2022/08/31 11:24:55;;;;;;;1.98;1.25;;;;;;;;;;5104920;28;20063;-75
2022/08/31 11:27:24;;;;;;;2.08;1.25;;;;;;;;;;5099394;28;20037;-74
2022/08/31 11:29:55;;;;;;;3.28;1.40;;;;;;;;;;5101579;28;20045;-73
2022/08/31 11:32:33;;;;;;;2.80;1.17;;;;;;;;;;5099487;28;20056;-75
2022/08/31 11:35:06;;;;;;;5.78;1.33;;;;;;;;;;5102162;28;20060;-73
2022/08/31 11:37:53;;;;;;;6.22;1.35;;;;;;;;;;5083350;28;20035;-73
2022/08/31 11:40:42;;;;;;;13.75;1.80;;;;;;;;;;5086345;28;20049;-75
2022/08/31 11:43:14;;;;;;;1.40;0.95;;;;;;;;;;5090023;28;20045;-72
2022/08/31 11:45:42;;;;;;;2.83;1.30;;;;;;;;;;5074918;28;20881;-73
2022/08/31 11:48:29;;;;;;;5.65;1.20;;;;;;;;;;5077576;28;20057;-74
2022/08/31 11:51:06;;;;;;;8.35;1.90;;;;;;;;;;5082074;28;20071;-74
2022/08/31 11:53:35;;;;;;;6.20;1.50;;;;;;;;;;5084352;28;20045;-74
2022/08/31 11:56:05;;;;;;;3.08;1.30;;;;;;;;;;5085706;28;20042;-74
2022/08/31 11:58:36;;;;;;;8.07;1.80;;;;;;;;;;5081249;28;20040;-73
2022/08/31 12:01:08;;;;;;;1.88;1.00;;;;;;;;;;5083489;28;20060;-72
2022/08/31 12:03:35;;;;;;;4.60;1.60;;;;;;;;;;5083483;28;20064;-72
2022/08/31 12:06:04;;;;;;;5.35;1.65;;;;;;;;;;5080786;28;20079;-74
2022/08/31 12:08:50;;;;;;;1.45;0.90;;;;;;;;;;5090749;28;20041;-72
2022/08/31 12:11:27;;;;;;;3.83;1.20;;;;;;;;;;5085487;28;20044;-72
2022/08/31 12:14:00;;;;;;;5.60;1.45;;;;;;;;;;5082948;28;20049;-75
2022/08/31 12:16:37;;;;;;;1.30;1.05;;;;;;;;;;5088030;28;20045;-74
2022/08/31 12:24:55;;;;;;;6.65;1.30;;;;;;;;;;5082616;28;20152;-73
2022/08/31 12:27:22;;;;;;;;;;;;;;;;;;5082381;28;20041;-71
2022/08/31 12:29:49;;;;;;;3.72;1.20;;;;;;;;;;5083774;28;44728;-72
2022/08/31 12:32:22;;;;;;;3.95;1.48;;;;;;;;;;5083071;28;20046;-72
2022/08/31 12:34:55;;;;;;;2.58;1.33;;;;;;;;;;5081624;28;20093;-72
2022/08/31 12:37:22;;;;;;;20.15;1.77;;;;;;;;;;5085568;28;20052;-75
2022/08/31 12:40:04;;;;;;;9.25;1.80;;;;;;;;;;5087482;28;20044;-73
2022/08/31 12:42:33;;;;;;;15.13;2.10;;;;;;;;;;5100343;28;20052;-74
2022/08/31 12:45:01;;;;;;;2.42;1.20;;;;;;;;;;5100952;28;20043;-72
2022/08/31 12:47:36;;;;;;;8.00;1.70;;;;;;;;;;5104463;28;20052;-72
2022/08/31 12:50:12;;;;;;;7.35;2.03;;;;;;;;;;5105420;28;20039;-73
2022/08/31 12:53:08;;;;;;;4.22;1.45;;;;;;;;;;5101192;28;20052;-72
2022/08/31 12:55:55;;;;;;;4.63;1.33;;;;;;;;;;5104277;28;20033;-74
2022/08/31 12:58:25;;;;;;;2.30;1.30;;;;;;;;;;5101789;28;20037;-72
2022/08/31 13:01:02;;;;;;;5.75;1.20;;;;;;;;;;5098673;28;20053;-72
2022/08/31 13:03:37;;;;;;;7.00;1.55;;;;;;;;;;5085792;28;20044;-72
2022/08/31 13:06:07;;;;;;;4.22;1.40;;;;;;;;;;5104826;28;20049;-70
2022/08/31 13:08:36;;;;;;;4.15;1.20;;;;;;;;;;5106366;28;20078;-72
2022/08/31 13:11:16;;;;;;;1.25;1.08;;;;;;;;;;5100793;28;20029;-72
2022/08/31 13:13:49;;;;;;;5.20;1.17;;;;;;;;;;5104710;28;20110;-73
2022/08/31 13:16:17;;;;;;;4.50;1.20;;;;;;;;;;5106628;28;20053;-73
2022/08/31 13:18:45;;;;;;;7.85;1.75;;;;;;;;;;5101874;28;20160;-73
2022/08/31 13:21:20;;;;;;;4.32;1.73;;;;;;;;;;5102667;28;20097;-73
2022/08/31 13:23:49;;;;;;;5.72;1.50;;;;;;;;;;5100897;28;22006;-70
2022/08/31 13:26:24;;;;;;;4.28;1.13;;;;;;;;;;5085553;28;20048;-72
2022/08/31 13:28:54;;;;;;;6.50;1.48;;;;;;;;;;5101205;28;20060;-72
2022/08/31 13:31:24;;;;;;;4.85;1.38;;;;;;;;;;5100964;28;20104;-74
2022/08/31 13:33:55;;;;;;;2.25;1.17;;;;;;;;;;5096444;28;20882;-74
2022/08/31 13:36:31;;;;;;;3.03;1.20;;;;;;;;;;5101692;28;20853;-73
2022/08/31 13:39:05;;;;;;;1.63;1.13;;;;;;;;;;5105494;28;20049;-75
2022/08/31 13:41:34;;;;;;;1.70;1.25;;;;;;;;;;5096916;28;20044;-72
2022/08/31 13:44:04;;;;;;;3.95;1.50;;;;;;;;;;5101140;28;20048;-73
2022/08/31 13:46:34;;;;;;;2.17;1.00;;;;;;;;;;5098935;28;20283;-73
2022/08/31 13:49:28;;;;;;;2.42;1.20;;;;;;;;;;5101520;28;20080;-72
2022/08/31 13:51:55;;;;;;;9.35;1.48;;;;;;;;;;5100797;28;20119;-74
2022/08/31 13:54:25;;;;;;;2.10;1.20;;;;;;;;;;5094399;28;20048;-73
2022/08/31 13:57:00;;;;;;;3.28;1.30;;;;;;;;;;5098992;28;20041;-72
2022/08/31 13:59:29;;;;;;;2.72;1.23;;;;;;;;;;5095047;28;20041;-74
2022/08/31 14:02:14;;;;;;;1.63;1.20;;;;;;;;;;5094610;28;20039;-72
2022/08/31 14:04:42;;;;;;;1.55;1.00;;;;;;;;;;5096435;28;20052;-74
2022/08/31 14:07:19;;;;;;;5.25;1.42;;;;;;;;;;5095220;28;20048;-73
2022/08/31 14:10:06;;;;;;;1.52;1.10;;;;;;;;;;5097572;28;20049;-71
2022/08/31 14:12:35;;;;;;;3.35;1.50;;;;;;;;;;5086174;28;20091;-71
2022/08/31 14:15:07;;;;;;;5.90;1.30;;;;;;;;;;5100057;28;20044;-72
2022/08/31 14:17:39;;;;;;;7.75;1.60;;;;;;;;;;5097024;28;20171;-72
2022/08/31 14:20:25;;;;;;;3.80;1.40;;;;;;;;;;5100711;28;20100;-71
2022/08/31 14:22:53;;;;;;;2.47;1.23;;;;;;;;;;5100673;28;20256;-72
2022/08/31 14:25:20;;;;;;;5.22;1.35;;;;;;;;;;5091289;28;20045;-72
2022/08/31 14:27:48;;;;;;;3.05;1.27;;;;;;;;;;5103250;28;20044;-73
2022/08/31 14:30:16;;;;;;;2.72;1.17;;;;;;;;;;5097699;28;20055;-73
2022/08/31 14:32:44;;;;;;;2.55;1.30;;;;;;;;;;5106123;28;20043;-71
2022/08/31 14:35:12;;;;;;;2.17;1.20;;;;;;;;;;5106475;28;20052;-72
2022/08/31 14:37:42;;;;;;;5.80;1.20;;;;;;;;;;5099500;28;20709;-71
2022/08/31 14:40:12;;;;;;;3.05;1.20;;;;;;;;;;5101322;28;20057;-72
2022/08/31 14:42:39;;;;;;;4.25;1.20;;;;;;;;;;5095706;28;20087;-72
2022/08/31 14:45:09;;;;;;;3.42;1.40;;;;;;;;;;5089979;28;20078;-73
2022/08/31 14:47:41;;;;;;;2.45;1.20;;;;;;;;;;5081036;28;20076;-72
2022/08/31 14:50:10;;;;;;;1.92;1.17;;;;;;;;;;5097446;28;20060;-71
2022/08/31 14:52:43;;;;;;;3.00;1.30;;;;;;;;;;5099174;28;20073;-73
2022/08/31 14:55:10;;;;;;;;;;;;;;;;;;5099989;28;20120;-72
2022/08/31 14:57:45;;;;;;;4.18;1.27;;;;;;;;;;5096648;28;43989;-74
2022/08/31 15:00:15;;;;;;;6.82;1.10;;;;;;;;;;5097368;28;21015;-72
2022/08/31 15:02:42;;;;;;;4.25;1.30;;;;;;;;;;5098953;28;20049;-71
2022/08/31 15:05:09;;;;;;;4.00;1.33;;;;;;;;;;5101376;28;20905;-73
2022/08/31 15:07:38;;;;;;;5.95;1.13;;;;;;;;;;5101284;28;20152;-72
2022/08/31 15:10:06;;;;;;;2.50;1.30;;;;;;;;;;5103331;28;20040;-72
2022/08/31 15:12:35;;;;;;;1.77;1.10;;;;;;;;;;5100354;28;20045;-74
2022/08/31 15:15:02;;;;;;;2.22;1.20;;;;;;;;;;5104783;28;20044;-73
2022/08/31 15:17:32;;;;;;;3.33;1.20;;;;;;;;;;5095707;28;20100;-71
2022/08/31 15:20:02;;;;;;;2.72;1.05;;;;;;;;;;5100408;28;20059;-72
2022/08/31 15:22:30;;;;;;;1.38;1.00;;;;;;;;;;5100396;28;20063;-72